KSUU/SUU METAR and TAF weather

Enter ICAO airport designator
Station Type Date Time Source
KSUU METAR 2020/11/27 13:58 UTC NOAA

KSUU 271358Z AUTO 28005KT 10SM CLR 00/M04 A3022 RMK AO2 SLP241 T00041041 $


Station Type Date Time Source
KSUU Decoded METAR 2020/11/27 13:58 UTC NOAA

Fairfield / Travis Air Force Base, CA, United States (KSUU) 38-16N 121-57W 22M
Nov 27, 2020 - 08:58 AM EST / 2020.11.27 1358 UTC
Wind: from the W (280 degrees) at 6 MPH (5 KT):0
Visibility: 10 mile(s):0
Sky conditions: clear
Temperature: 32.7 F (0.4 C)
Windchill: 26 F (-3 C):1
Dew Point: 24.6 F (-4.1 C)
Relative Humidity: 71%
Pressure (altimeter): 30.22 in. Hg (1023 hPa)
ob: KSUU 271358Z AUTO 28005KT 10SM CLR 00/M04 A3022 RMK AO2 SLP241 T00041041
cycle: 14

Station Type Date Time Source
KSUU TAF 2020/11/27 11:15 UTC NOAA

TAF KSUU 271100Z 2711/2817 VRB06KT 9999 SKC QNH3020INS TX18/2723Z TN03/2715Z

Example: see airport list